createdAt,value
2023-03-24T00:00:14.261Z,8.8
2023-03-24T00:01:14.257Z,8.8
2023-03-24T00:02:14.220Z,8.8
2023-03-24T00:03:14.380Z,8.8
2023-03-24T00:04:14.246Z,8.8
2023-03-24T00:05:14.206Z,8.8
2023-03-24T00:06:14.196Z,8.8
2023-03-24T00:07:14.275Z,8.8
2023-03-24T00:08:14.198Z,8.8
2023-03-24T00:09:14.206Z,8.8
2023-03-24T00:10:14.231Z,8.8
2023-03-24T00:11:14.252Z,8.8
2023-03-24T00:12:14.201Z,8.8
2023-03-24T00:13:14.213Z,8.8
2023-03-24T00:14:14.215Z,8.8
2023-03-24T00:15:14.196Z,8.8
2023-03-24T00:16:14.272Z,8.8
2023-03-24T00:17:14.225Z,8.8
2023-03-24T00:18:14.224Z,8.8
2023-03-24T00:19:14.238Z,8.8
2023-03-24T00:20:14.209Z,8.8
2023-03-24T00:21:14.217Z,8.8
2023-03-24T00:22:14.235Z,8.8
2023-03-24T00:23:14.226Z,8.8
2023-03-24T00:24:14.180Z,8.8
2023-03-24T00:25:14.220Z,8.8
2023-03-24T00:26:14.218Z,8.8
2023-03-24T00:27:14.225Z,8.7
2023-03-24T00:28:14.228Z,8.7
2023-03-24T00:29:14.213Z,8.7
2023-03-24T00:30:14.231Z,8.7
2023-03-24T00:31:14.216Z,8.7
2023-03-24T00:32:14.186Z,8.7
2023-03-24T00:33:14.242Z,8.7
2023-03-24T00:34:14.231Z,8.7
2023-03-24T00:35:14.226Z,8.7
2023-03-24T00:36:14.232Z,8.7
2023-03-24T00:37:14.191Z,8.7
2023-03-24T00:38:14.204Z,8.7
2023-03-24T00:39:14.195Z,8.7
2023-03-24T00:40:14.227Z,8.7
2023-03-24T00:41:14.199Z,8.7
2023-03-24T00:42:14.236Z,8.7
2023-03-24T00:43:14.226Z,8.7
2023-03-24T00:44:14.196Z,8.7
2023-03-24T00:45:14.212Z,8.7
2023-03-24T00:46:14.274Z,8.7
2023-03-24T00:47:14.189Z,8.7
2023-03-24T00:48:14.206Z,8.7
2023-03-24T00:49:14.204Z,8.7
2023-03-24T00:50:14.231Z,8.7
2023-03-24T00:51:14.231Z,8.7
2023-03-24T00:52:14.220Z,8.7
2023-03-24T00:53:14.234Z,8.7
2023-03-24T00:54:14.245Z,8.7
2023-03-24T00:55:14.247Z,8.7
2023-03-24T00:56:14.238Z,8.7
2023-03-24T00:57:14.240Z,8.1
2023-03-24T00:58:14.208Z,8.1
2023-03-24T00:59:14.264Z,8.1
2023-03-24T01:00:14.205Z,8.1
2023-03-24T01:01:14.290Z,8.1
2023-03-24T01:02:14.274Z,8.1
2023-03-24T01:03:14.235Z,8.1
2023-03-24T01:04:14.251Z,8.1
2023-03-24T01:05:14.236Z,8.1
2023-03-24T01:06:14.244Z,8.1
2023-03-24T01:07:14.238Z,8.1
2023-03-24T01:08:14.244Z,8.1
2023-03-24T01:09:14.209Z,8.1
2023-03-24T01:10:14.306Z,8.1
2023-03-24T01:11:14.259Z,8.1
2023-03-24T01:12:14.267Z,8.1
2023-03-24T01:13:14.243Z,8.1
2023-03-24T01:14:14.249Z,7.7
2023-03-24T01:15:14.273Z,7.7
2023-03-24T01:16:14.302Z,7.7
2023-03-24T01:17:14.241Z,7.7
2023-03-24T01:18:14.263Z,7.7
2023-03-24T01:19:14.246Z,7.7
2023-03-24T01:20:14.312Z,7.7
2023-03-24T01:21:14.268Z,7.7
2023-03-24T01:22:14.230Z,7.5
2023-03-24T01:23:14.247Z,7.5
2023-03-24T01:24:14.276Z,7.5
2023-03-24T01:25:14.273Z,7.5
2023-03-24T01:26:14.278Z,7.5
2023-03-24T01:27:14.275Z,7.5
2023-03-24T01:28:14.267Z,7.5
2023-03-24T01:29:14.273Z,7.5
2023-03-24T01:30:14.274Z,7.5
2023-03-24T01:31:14.336Z,7.2
2023-03-24T01:32:14.273Z,7.2
2023-03-24T01:33:14.269Z,7.2
2023-03-24T01:34:14.275Z,7.2
2023-03-24T01:35:14.274Z,7.2
2023-03-24T01:36:14.291Z,7.2
2023-03-24T01:37:14.417Z,7.2
2023-03-24T01:38:14.273Z,7.2
2023-03-24T01:39:14.273Z,7.2
2023-03-24T01:40:14.271Z,7.2
2023-03-24T01:41:14.270Z,7.2
2023-03-24T01:42:14.266Z,7.2
2023-03-24T01:43:14.277Z,7.2
2023-03-24T01:44:14.287Z,6.7
2023-03-24T01:45:14.325Z,6.7
2023-03-24T01:46:14.314Z,6.7
2023-03-24T01:47:14.277Z,6.7
2023-03-24T01:48:14.280Z,6.7
2023-03-24T01:49:14.275Z,6.7
2023-03-24T01:50:14.245Z,6.7
2023-03-24T01:51:14.283Z,6.7
2023-03-24T01:52:14.287Z,6.7
2023-03-24T01:53:14.284Z,6.7
2023-03-24T01:54:14.285Z,6.7
2023-03-24T01:55:14.346Z,6.7
2023-03-24T01:56:14.385Z,6.7
2023-03-24T01:57:14.293Z,6.7
2023-03-24T01:58:14.332Z,6.7
2023-03-24T01:59:14.284Z,6.7
2023-03-24T02:00:14.548Z,6.7
2023-03-24T02:01:14.306Z,6.7
2023-03-24T02:02:14.289Z,6.7
2023-03-24T02:03:14.286Z,6.7
2023-03-24T02:04:14.346Z,6.7
2023-03-24T02:05:14.320Z,6.3
2023-03-24T02:06:14.325Z,6.3
2023-03-24T02:07:14.304Z,6.3
2023-03-24T02:08:14.311Z,6.3
2023-03-24T02:09:14.306Z,6.3
2023-03-24T02:10:14.313Z,6.3
2023-03-24T02:11:14.298Z,6.3
2023-03-24T02:12:14.298Z,6.3
2023-03-24T02:13:14.339Z,6.3
2023-03-24T02:14:14.314Z,6.3
2023-03-24T02:15:14.306Z,6.3
2023-03-24T02:16:14.410Z,6.3
2023-03-24T02:17:14.338Z,6.3
2023-03-24T02:18:14.318Z,6.3
2023-03-24T02:19:14.321Z,6.2
2023-03-24T02:20:14.335Z,6.2
2023-03-24T02:21:14.325Z,6.2
2023-03-24T02:22:14.321Z,6.2
2023-03-24T02:23:15.385Z,6.2
2023-03-24T02:24:14.353Z,6.2
2023-03-24T02:25:14.319Z,6.2
2023-03-24T02:26:14.341Z,6.2
2023-03-24T02:27:14.337Z,6.2
2023-03-24T02:28:14.328Z,6.2
2023-03-24T02:29:14.335Z,6.2
2023-03-24T02:30:14.382Z,6.2
2023-03-24T02:31:14.388Z,6.2
2023-03-24T02:32:14.328Z,6.2
2023-03-24T02:33:14.342Z,6.2
2023-03-24T02:34:14.378Z,6.2
2023-03-24T02:35:14.372Z,6.2
2023-03-24T02:36:14.353Z,6.2
2023-03-24T02:37:14.364Z,6.2
2023-03-24T02:38:14.338Z,6.2
2023-03-24T02:39:14.366Z,6.2
2023-03-24T02:40:14.340Z,6.2
2023-03-24T02:41:14.418Z,6.2
2023-03-24T02:42:14.345Z,6.2
2023-03-24T02:43:14.343Z,6.2
2023-03-24T02:44:14.381Z,6.2
2023-03-24T02:45:14.459Z,6.2
2023-03-24T02:46:14.618Z,6.2
2023-03-24T02:47:14.364Z,6.2
2023-03-24T02:48:14.356Z,6.2
2023-03-24T02:49:14.349Z,6.2
2023-03-24T02:50:14.357Z,6.2
2023-03-24T02:51:14.366Z,6.2
2023-03-24T02:52:14.401Z,6.2
2023-03-24T02:53:14.357Z,6.2
2023-03-24T02:54:14.356Z,6.2
2023-03-24T02:55:14.352Z,6.2
2023-03-24T02:56:14.362Z,5.7
2023-03-24T02:57:14.408Z,5.7
2023-03-24T02:58:14.395Z,5.7
2023-03-24T02:59:14.364Z,5.7
2023-03-24T03:00:14.346Z,5.7
2023-03-24T03:01:14.412Z,5.7
2023-03-24T03:02:14.354Z,5.7
2023-03-24T03:03:14.385Z,5.7
2023-03-24T03:04:14.376Z,5.7
2023-03-24T03:05:14.374Z,5.7
2023-03-24T03:06:14.359Z,5.7
2023-03-24T03:07:14.391Z,5.7
2023-03-24T03:08:14.439Z,5.7
2023-03-24T03:09:14.379Z,5.7
2023-03-24T03:10:14.429Z,5.7
2023-03-24T03:11:14.385Z,5.7
2023-03-24T03:12:14.405Z,5.7
2023-03-24T03:13:14.383Z,5.7
2023-03-24T03:14:14.408Z,5.7
2023-03-24T03:15:14.393Z,5.7
2023-03-24T03:16:14.413Z,5.7
2023-03-24T03:17:14.441Z,5.6
2023-03-24T03:18:14.397Z,5.6
2023-03-24T03:19:14.406Z,5.6
2023-03-24T03:20:14.446Z,5.6
2023-03-24T03:21:14.385Z,5.6
2023-03-24T03:22:14.397Z,5.6
2023-03-24T03:23:14.409Z,5.6
2023-03-24T03:24:14.394Z,5.6
2023-03-24T03:25:14.405Z,5.6
2023-03-24T03:26:14.408Z,5.6
2023-03-24T03:27:14.390Z,5.6
2023-03-24T03:28:14.437Z,5.6
2023-03-24T03:29:14.407Z,5.6
2023-03-24T03:30:14.408Z,5.6
2023-03-24T03:31:14.477Z,5.6
2023-03-24T03:32:14.400Z,5.6
2023-03-24T03:33:14.438Z,5.6
2023-03-24T03:34:14.406Z,5.6
2023-03-24T03:35:14.414Z,5.6
2023-03-24T03:36:14.420Z,5.6
2023-03-24T03:37:14.436Z,5.6
2023-03-24T03:38:14.408Z,5.6
2023-03-24T03:39:14.413Z,5.6
2023-03-24T03:40:14.412Z,5.6
2023-03-24T03:41:14.432Z,5.6
2023-03-24T03:42:14.424Z,5.6
2023-03-24T03:43:14.414Z,5.6
2023-03-24T03:44:14.427Z,5.6
2023-03-24T03:45:14.470Z,5.6
2023-03-24T03:46:14.496Z,5.6
2023-03-24T03:47:14.405Z,5.6
2023-03-24T03:48:14.499Z,5.6
2023-03-24T03:49:14.424Z,5.6
2023-03-24T03:50:14.543Z,5.6
2023-03-24T03:51:14.734Z,5.6
2023-03-24T03:52:14.455Z,5.6
2023-03-24T03:53:14.443Z,5.6
2023-03-24T03:54:14.444Z,5.6
2023-03-24T03:55:14.422Z,5.6
2023-03-24T03:56:14.420Z,5.6
2023-03-24T03:57:14.456Z,5.6
2023-03-24T03:58:14.446Z,5.2
2023-03-24T03:59:14.499Z,5.2
2023-03-24T04:00:14.438Z,5.2
2023-03-24T04:01:14.446Z,5.2
2023-03-24T04:02:14.490Z,5.2
2023-03-24T04:03:14.559Z,5.2
2023-03-24T04:04:14.457Z,5.2
2023-03-24T04:05:14.446Z,5.2
2023-03-24T04:06:14.467Z,5.2
2023-03-24T04:07:14.472Z,5.2
2023-03-24T04:08:14.504Z,5.2
2023-03-24T04:09:14.453Z,5.2
2023-03-24T04:10:14.438Z,5.2
2023-03-24T04:11:14.444Z,5.2
2023-03-24T04:12:14.445Z,5.2
2023-03-24T04:13:14.537Z,5.2
2023-03-24T04:14:14.512Z,5.1
2023-03-24T04:15:14.478Z,5.1
2023-03-24T04:16:14.504Z,5.1
2023-03-24T04:17:14.529Z,5.1
2023-03-24T04:18:14.456Z,5.1
2023-03-24T04:19:14.482Z,5.1
2023-03-24T04:20:14.468Z,5.1
2023-03-24T04:21:14.679Z,5.1
2023-03-24T04:22:14.481Z,5.1
2023-03-24T04:23:14.609Z,5.1
2023-03-24T04:24:14.473Z,5.1
2023-03-24T04:25:14.511Z,5.1
2023-03-24T04:26:14.477Z,5.1
2023-03-24T04:27:14.468Z,5.1
2023-03-24T04:28:14.519Z,5.1
2023-03-24T04:29:14.515Z,5.1
2023-03-24T04:30:16.475Z,5.1
2023-03-24T04:31:14.507Z,5.1
2023-03-24T04:32:14.521Z,5.1
2023-03-24T04:33:14.468Z,5.1
2023-03-24T04:34:14.543Z,5.1
2023-03-24T04:35:14.496Z,5.1
2023-03-24T04:36:14.525Z,5.1
2023-03-24T04:37:14.503Z,5.1
2023-03-24T04:38:14.534Z,5.1
2023-03-24T04:39:14.485Z,5.1
2023-03-24T04:40:14.512Z,5.1
2023-03-24T04:41:15.370Z,5.1
2023-03-24T04:42:14.496Z,5.1
2023-03-24T04:43:14.540Z,5.1
2023-03-24T04:44:14.493Z,5.1
2023-03-24T04:45:14.490Z,5.1
2023-03-24T04:46:14.497Z,5.1
2023-03-24T04:47:14.505Z,5.1
2023-03-24T04:48:14.486Z,5.1
2023-03-24T04:49:14.512Z,5.1
2023-03-24T04:50:14.556Z,5.1
2023-03-24T04:51:14.481Z,5.1
2023-03-24T04:52:16.250Z,5.1
2023-03-24T04:53:14.498Z,5.1
2023-03-24T04:54:14.553Z,5.1
2023-03-24T04:55:14.500Z,5.1
2023-03-24T04:56:14.515Z,5.1
2023-03-24T04:57:14.496Z,5.1
2023-03-24T04:58:14.499Z,5.1
2023-03-24T04:59:14.517Z,5.1
2023-03-24T05:00:14.507Z,5.1
2023-03-24T05:01:14.612Z,5.1
2023-03-24T05:02:14.523Z,5.1
2023-03-24T05:03:14.544Z,5.1
2023-03-24T05:04:14.553Z,5.1
2023-03-24T05:05:14.544Z,5.1
2023-03-24T05:06:14.549Z,5.1
2023-03-24T05:07:14.503Z,5.1
2023-03-24T05:08:14.501Z,5.1
2023-03-24T05:09:14.508Z,5.1
2023-03-24T05:10:14.538Z,5.1
2023-03-24T05:11:14.548Z,5.1
2023-03-24T05:12:14.525Z,5.1
2023-03-24T05:13:14.524Z,5.1
2023-03-24T05:14:14.534Z,5.1
2023-03-24T05:15:14.527Z,5.1
2023-03-24T05:16:14.590Z,5.1
2023-03-24T05:17:14.554Z,5.1
2023-03-24T05:18:14.585Z,5.1
2023-03-24T05:19:14.541Z,5.1
2023-03-24T05:20:14.595Z,5.1
2023-03-24T05:21:14.536Z,5.1
2023-03-24T05:22:14.541Z,5.1
2023-03-24T05:23:14.527Z,5.1
2023-03-24T05:24:14.560Z,5.1
2023-03-24T05:25:14.548Z,5.1
2023-03-24T05:26:14.584Z,5.1
2023-03-24T05:27:14.536Z,5.1
2023-03-24T05:28:14.576Z,5.1
2023-03-24T05:29:14.566Z,5.7
2023-03-24T05:30:14.577Z,5.7
2023-03-24T05:31:14.617Z,5.7
2023-03-24T05:32:14.524Z,5.7
2023-03-24T05:33:14.617Z,5.7
2023-03-24T05:34:14.557Z,5.7
2023-03-24T05:35:14.583Z,5.7
2023-03-24T05:36:14.621Z,5.7
2023-03-24T05:37:14.558Z,5.7
2023-03-24T05:38:14.556Z,6.2
2023-03-24T05:39:14.536Z,6.2
2023-03-24T05:40:14.575Z,6.2
2023-03-24T05:41:14.572Z,6.2
2023-03-24T05:42:14.575Z,6.2
2023-03-24T05:43:14.604Z,6.2
2023-03-24T05:44:14.592Z,6.8
2023-03-24T05:45:14.574Z,6.8
2023-03-24T05:46:14.598Z,6.8
2023-03-24T05:47:14.632Z,6.8
2023-03-24T05:48:14.710Z,6.8
2023-03-24T05:49:14.610Z,6.8
2023-03-24T05:50:14.597Z,6.8
2023-03-24T05:51:14.612Z,7.3
2023-03-24T05:52:14.618Z,7.3
2023-03-24T05:53:14.584Z,7.3
2023-03-24T05:54:14.573Z,7.3
2023-03-24T05:55:14.604Z,7.3
2023-03-24T05:56:14.561Z,7.8
2023-03-24T05:57:14.572Z,7.8
2023-03-24T05:58:14.571Z,7.8
2023-03-24T05:59:14.612Z,7.8
2023-03-24T06:00:14.606Z,8.2
2023-03-24T06:01:14.605Z,8.2
2023-03-24T06:02:14.691Z,8.3
2023-03-24T06:03:14.707Z,8.3
2023-03-24T06:04:14.677Z,8.3
2023-03-24T06:05:14.617Z,8.3
2023-03-24T06:06:14.635Z,8.3
2023-03-24T06:07:14.584Z,8.8
2023-03-24T06:08:14.593Z,8.8
2023-03-24T06:09:14.574Z,8.8
2023-03-24T06:10:14.666Z,8.8
2023-03-24T06:11:14.650Z,8.8
2023-03-24T06:12:14.621Z,9.3
2023-03-24T06:13:14.595Z,9.3
2023-03-24T06:14:14.592Z,9.3
2023-03-24T06:15:14.594Z,9.3
2023-03-24T06:16:14.659Z,9.3
2023-03-24T06:17:14.782Z,9.3
2023-03-24T06:18:14.597Z,9.3
2023-03-24T06:19:14.625Z,9.9
2023-03-24T06:20:14.596Z,9.9
2023-03-24T06:21:14.630Z,9.9
2023-03-24T06:22:14.672Z,9.9
2023-03-24T06:23:14.620Z,9.9
2023-03-24T06:24:14.619Z,9.9
2023-03-24T06:25:14.700Z,9.9
2023-03-24T06:26:14.579Z,10.4
2023-03-24T06:27:14.627Z,10.4
2023-03-24T06:28:14.625Z,10.4
2023-03-24T06:29:14.639Z,10.4
2023-03-24T06:30:14.622Z,10.4
2023-03-24T06:31:14.738Z,10.4
2023-03-24T06:32:14.592Z,10.4
2023-03-24T06:33:14.640Z,10.9
2023-03-24T06:34:14.602Z,10.9
2023-03-24T06:35:14.623Z,10.9
2023-03-24T06:36:14.680Z,10.9
2023-03-24T06:37:14.629Z,10.9
2023-03-24T06:38:14.627Z,10.9
2023-03-24T06:39:14.589Z,10.9
2023-03-24T06:40:14.626Z,11.4
2023-03-24T06:41:14.656Z,11.4
2023-03-24T06:42:14.600Z,11.4
2023-03-24T06:43:14.662Z,11.4
2023-03-24T06:44:14.637Z,11.4
2023-03-24T06:45:14.634Z,11.4
2023-03-24T06:46:14.665Z,11.4
2023-03-24T06:47:14.679Z,11.4
2023-03-24T06:48:14.714Z,11.4
2023-03-24T06:49:14.644Z,12
2023-03-24T06:50:14.615Z,12
2023-03-24T06:51:14.647Z,12
2023-03-24T06:52:14.625Z,12
2023-03-24T06:53:14.679Z,12
2023-03-24T06:54:14.648Z,12
2023-03-24T06:55:14.647Z,12
2023-03-24T06:56:14.608Z,12
2023-03-24T06:57:14.706Z,12
2023-03-24T06:58:14.661Z,12
2023-03-24T06:59:14.653Z,12
2023-03-24T07:00:14.701Z,12.5
2023-03-24T07:01:14.656Z,12.5
2023-03-24T07:02:14.648Z,12.5
2023-03-24T07:03:14.730Z,12.5
2023-03-24T07:04:14.670Z,12.5
2023-03-24T07:05:14.689Z,12.5
2023-03-24T07:06:14.642Z,12.5
2023-03-24T07:08:33.942Z,12.5
2023-03-24T07:09:14.665Z,12.5
2023-03-24T07:10:14.665Z,12.5
2023-03-24T07:11:14.672Z,13.1
2023-03-24T07:12:15.005Z,13.1
2023-03-24T07:13:14.679Z,13.1
2023-03-24T07:14:14.680Z,13.1
2023-03-24T07:15:14.642Z,13.1
2023-03-24T07:16:14.751Z,13.1
2023-03-24T07:17:14.670Z,13.1
2023-03-24T07:18:14.755Z,13.1
2023-03-24T07:19:14.626Z,13.1
2023-03-24T07:20:14.664Z,13.6
2023-03-24T07:21:14.675Z,13.6
2023-03-24T07:22:14.662Z,13.6
2023-03-24T07:23:14.714Z,13.6
2023-03-24T07:24:14.660Z,13.6
2023-03-24T07:25:14.676Z,13.6
2023-03-24T07:26:14.683Z,13.6
2023-03-24T07:27:14.672Z,13.6
2023-03-24T07:28:14.702Z,13.6
2023-03-24T07:29:14.725Z,13.6
2023-03-24T07:30:14.670Z,14.1
2023-03-24T07:31:14.692Z,14.1
2023-03-24T07:32:14.689Z,14.1
2023-03-24T07:33:14.693Z,14.1
2023-03-24T07:34:14.734Z,14.1
2023-03-24T07:35:14.674Z,14.1
2023-03-24T07:36:14.697Z,14.1
2023-03-24T07:37:14.681Z,14.1
2023-03-24T07:38:14.685Z,14.1
2023-03-24T07:39:14.677Z,14.1
2023-03-24T07:40:14.711Z,14.6
2023-03-24T07:41:14.708Z,14.6
2023-03-24T07:42:14.901Z,14.6
2023-03-24T07:43:14.719Z,14.6
2023-03-24T07:44:14.695Z,14.6
2023-03-24T07:45:14.707Z,14.6
2023-03-24T07:46:14.712Z,14.6
2023-03-24T07:47:14.718Z,14.6
2023-03-24T07:48:14.800Z,14.6
2023-03-24T07:49:19.374Z,15.1
2023-03-24T07:50:14.717Z,15.2
2023-03-24T07:51:14.688Z,15.2
2023-03-24T07:52:14.690Z,15.2
2023-03-24T07:53:14.695Z,15.2
2023-03-24T07:54:14.726Z,15.2
2023-03-24T07:55:14.724Z,15.2
2023-03-24T07:56:14.770Z,15.2
2023-03-24T07:57:14.738Z,15.2
2023-03-24T07:58:14.717Z,15.2
2023-03-24T07:59:14.750Z,15.7
2023-03-24T08:00:14.722Z,15.7
2023-03-24T08:01:14.760Z,15.7
2023-03-24T08:02:14.745Z,15.7
2023-03-24T08:03:14.992Z,15.7
2023-03-24T08:04:14.834Z,15.7
2023-03-24T08:05:14.726Z,15.7
2023-03-24T08:06:14.768Z,15.7
2023-03-24T08:07:14.750Z,15.7
2023-03-24T08:08:14.729Z,15.7
2023-03-24T08:09:14.740Z,15.7
2023-03-24T08:10:14.721Z,16.2
2023-03-24T08:11:14.691Z,16.2
2023-03-24T08:12:20.366Z,16.2
2023-03-24T08:13:14.816Z,16.2
2023-03-24T08:14:14.744Z,16.2
2023-03-24T08:15:14.756Z,16.2
2023-03-24T08:16:14.780Z,16.2
2023-03-24T08:17:14.940Z,16.2
2023-03-24T08:18:14.744Z,16.2
2023-03-24T08:19:14.734Z,16.2
2023-03-24T08:20:15.208Z,16.7
2023-03-24T08:21:14.705Z,16.7
2023-03-24T08:22:14.747Z,16.7
2023-03-24T08:23:14.738Z,16.7
2023-03-24T08:24:14.810Z,16.7
2023-03-24T08:25:14.744Z,16.7
2023-03-24T08:26:14.756Z,16.7
2023-03-24T08:27:14.753Z,16.7
2023-03-24T08:28:14.754Z,16.7
2023-03-24T08:29:14.748Z,16.7
2023-03-24T08:30:14.748Z,16.7
2023-03-24T08:31:14.809Z,16.7
2023-03-24T08:32:14.787Z,16.7
2023-03-24T08:33:14.870Z,17.2
2023-03-24T08:34:14.845Z,17.2
2023-03-24T08:35:14.782Z,17.2
2023-03-24T08:36:14.790Z,17.2
2023-03-24T08:37:14.738Z,17.2
2023-03-24T08:38:16.328Z,17.2
2023-03-24T08:39:14.773Z,17.2
2023-03-24T08:40:14.769Z,17.2
2023-03-24T08:41:14.750Z,17.2
2023-03-24T08:42:14.751Z,17.2
2023-03-24T08:43:14.770Z,17.2
2023-03-24T08:44:14.752Z,17.2
2023-03-24T08:45:14.812Z,17.2
2023-03-24T08:46:14.810Z,17.2
2023-03-24T08:47:14.754Z,17.2
2023-03-24T08:48:14.866Z,17.6
2023-03-24T08:49:14.749Z,17.7
2023-03-24T08:50:14.818Z,17.7
2023-03-24T08:51:14.749Z,17.7
2023-03-24T08:52:14.774Z,17.7
2023-03-24T08:53:14.751Z,17.7
2023-03-24T08:54:14.750Z,17.7
2023-03-24T08:55:14.802Z,17.7
2023-03-24T08:56:14.773Z,17.7
2023-03-24T08:57:14.824Z,17.7
2023-03-24T08:58:14.763Z,17.7
2023-03-24T08:59:14.752Z,17.7
2023-03-24T09:00:14.840Z,17.7
2023-03-24T09:01:14.777Z,17.7
2023-03-24T09:02:14.746Z,18.2
2023-03-24T09:03:14.803Z,18.2
2023-03-24T09:04:14.890Z,18.2
2023-03-24T09:05:14.805Z,18.2
2023-03-24T09:06:14.812Z,18.2
2023-03-24T09:07:14.781Z,18.2
2023-03-24T09:08:14.750Z,18.2
2023-03-24T09:09:14.797Z,18.2
2023-03-24T09:10:14.816Z,18.2
2023-03-24T09:11:14.821Z,18.2
2023-03-24T09:12:14.810Z,18.2
2023-03-24T09:13:14.819Z,18.2
2023-03-24T09:14:14.757Z,18.2
2023-03-24T09:15:14.800Z,18.2
2023-03-24T09:16:14.787Z,18.2
2023-03-24T09:17:14.814Z,18.2
2023-03-24T09:18:14.806Z,18.6
2023-03-24T09:19:14.752Z,18.6
2023-03-24T09:20:14.837Z,18.6
2023-03-24T09:21:14.814Z,18.6
2023-03-24T09:22:14.786Z,18.6
2023-03-24T09:23:14.870Z,18.6
2023-03-24T09:24:14.810Z,18.6
2023-03-24T09:25:14.771Z,18.6
2023-03-24T09:26:14.767Z,19.1
2023-03-24T09:27:14.827Z,19.1
2023-03-24T09:28:14.825Z,19.1
2023-03-24T09:29:14.820Z,19.1
2023-03-24T09:30:14.877Z,19.1
2023-03-24T09:31:14.811Z,19.1
2023-03-24T09:32:14.770Z,19.1
2023-03-24T09:33:14.810Z,19.1
2023-03-24T09:34:14.818Z,19.1
2023-03-24T09:35:14.814Z,19.1
2023-03-24T09:36:14.875Z,19.1
2023-03-24T09:37:14.806Z,19.1
2023-03-24T09:38:14.846Z,19.7
2023-03-24T09:39:14.822Z,19.7
2023-03-24T09:40:14.815Z,19.7
2023-03-24T09:41:14.809Z,19.7
2023-03-24T09:42:14.813Z,19.7
2023-03-24T09:43:14.868Z,19.7
2023-03-24T09:44:14.828Z,19.7
2023-03-24T09:45:14.790Z,19.7
2023-03-24T09:46:14.822Z,19.7
2023-03-24T09:47:14.793Z,19.7
2023-03-24T09:48:14.796Z,19.7
2023-03-24T09:49:14.830Z,19.8
2023-03-24T09:50:14.814Z,19.8
2023-03-24T09:51:14.790Z,19.8
2023-03-24T09:52:14.799Z,19.8
2023-03-24T09:53:14.834Z,19.8
2023-03-24T09:54:14.799Z,19.8
2023-03-24T09:55:14.810Z,19.8
2023-03-24T09:56:14.802Z,19.8
2023-03-24T09:57:14.869Z,19.8
2023-03-24T09:58:14.838Z,20.4
2023-03-24T09:59:14.832Z,20.4
2023-03-24T10:00:14.824Z,20.4
2023-03-24T10:01:14.842Z,20.4
2023-03-24T10:02:14.810Z,20.4
2023-03-24T10:03:14.973Z,20.4
2023-03-24T10:04:14.960Z,20.4
2023-03-24T10:05:14.864Z,20.4
2023-03-24T10:06:14.829Z,20.4
2023-03-24T10:07:14.837Z,20.4
2023-03-24T10:08:14.808Z,20.4
2023-03-24T10:09:14.838Z,20.5
2023-03-24T10:10:14.881Z,20.5
2023-03-24T10:11:14.805Z,20.5
2023-03-24T10:12:14.838Z,20.5
2023-03-24T10:13:14.787Z,20.5
2023-03-24T10:14:14.836Z,20.5
2023-03-24T10:15:17.627Z,20.5
2023-03-24T10:16:14.881Z,20.5
2023-03-24T10:17:14.833Z,20.5
2023-03-24T10:18:14.843Z,20.5
2023-03-24T10:19:14.832Z,20.5
2023-03-24T10:20:14.806Z,20.5
2023-03-24T10:21:14.849Z,20.5
2023-03-24T10:22:14.843Z,21
2023-03-24T10:23:14.833Z,21
2023-03-24T10:24:14.891Z,21
2023-03-24T10:25:14.866Z,21
2023-03-24T10:26:14.830Z,21
2023-03-24T10:27:14.843Z,21
2023-03-24T10:28:14.858Z,21
2023-03-24T10:29:14.852Z,21
2023-03-24T10:30:14.842Z,21
2023-03-24T10:31:14.885Z,21
2023-03-24T10:32:14.801Z,21
2023-03-24T10:33:14.819Z,21
2023-03-24T10:34:14.876Z,21
2023-03-24T10:35:14.814Z,21
2023-03-24T10:36:14.928Z,21
2023-03-24T10:37:14.819Z,21
2023-03-24T10:38:14.817Z,21
2023-03-24T10:39:19.972Z,21
2023-03-24T10:40:14.826Z,21
2023-03-24T10:41:14.826Z,21
2023-03-24T10:42:14.870Z,21
2023-03-24T10:43:14.880Z,21.5
2023-03-24T10:44:14.832Z,21.5
2023-03-24T10:45:14.836Z,21.5
2023-03-24T10:46:14.863Z,21.5
2023-03-24T10:47:14.868Z,21.5
2023-03-24T10:48:14.818Z,21.5
2023-03-24T10:49:14.847Z,21.5
2023-03-24T10:50:15.728Z,21.5
2023-03-24T10:51:14.836Z,21.5
2023-03-24T10:52:14.824Z,21.5
2023-03-24T10:53:14.874Z,21.5
2023-03-24T10:54:14.848Z,21.5
2023-03-24T10:55:14.831Z,21.5
2023-03-24T10:56:14.844Z,21.5
2023-03-24T10:57:14.888Z,21.5
2023-03-24T10:58:14.875Z,21.5
2023-03-24T10:59:14.818Z,21.5
2023-03-24T11:00:14.834Z,21.7
2023-03-24T11:01:14.870Z,21.7
2023-03-24T11:02:14.867Z,21.7
2023-03-24T11:03:14.985Z,21.7
2023-03-24T11:04:14.836Z,21.7
2023-03-24T11:05:14.846Z,21.7
2023-03-24T11:06:14.827Z,21.7
2023-03-24T11:07:14.828Z,21.7
2023-03-24T11:08:14.847Z,21.7
2023-03-24T11:09:15.861Z,21.7
2023-03-24T11:10:14.880Z,21.7
2023-03-24T11:11:14.824Z,21.7
2023-03-24T11:12:14.872Z,21.7
2023-03-24T11:13:15.637Z,21.7
2023-03-24T11:14:14.871Z,21.7
2023-03-24T11:15:21.336Z,21.7
2023-03-24T11:16:14.942Z,21.7
2023-03-24T11:17:14.815Z,21.7
2023-03-24T11:18:14.839Z,21.7
2023-03-24T11:19:17.221Z,21.7
2023-03-24T11:20:14.879Z,21.7
2023-03-24T11:21:14.888Z,21.7
2023-03-24T11:22:14.872Z,21.7
2023-03-24T11:23:14.844Z,21.7
2023-03-24T11:24:14.831Z,21.7
2023-03-24T11:25:14.907Z,21.7
2023-03-24T11:26:14.880Z,21.7
2023-03-24T11:27:14.840Z,21.7
2023-03-24T11:28:14.878Z,21.7
2023-03-24T11:29:14.844Z,21.7
2023-03-24T11:30:14.843Z,21.7
2023-03-24T11:31:14.914Z,21.7
2023-03-24T11:32:14.851Z,21.7
2023-03-24T11:33:14.850Z,21.7
2023-03-24T11:34:14.852Z,21.7
2023-03-24T11:35:14.867Z,21.7
2023-03-24T11:36:14.946Z,21.7
2023-03-24T11:37:14.866Z,21.7
2023-03-24T11:38:14.834Z,21.7
2023-03-24T11:39:14.909Z,21.7
2023-03-24T11:40:14.854Z,21.7
2023-03-24T11:41:14.845Z,22.1
2023-03-24T11:42:14.845Z,22.1
2023-03-24T11:43:14.877Z,22.1
2023-03-24T11:44:14.880Z,22.1
2023-03-24T11:45:14.878Z,22.1
2023-03-24T11:46:14.909Z,22.1
2023-03-24T11:47:14.899Z,22.1
2023-03-24T11:48:14.887Z,22.1
2023-03-24T11:49:14.884Z,22.1
2023-03-24T11:50:14.850Z,22.1
2023-03-24T11:51:14.880Z,22.1
2023-03-24T11:52:14.880Z,22.1
2023-03-24T11:53:14.850Z,22.1
2023-03-24T11:54:14.879Z,22.1
2023-03-24T11:55:14.994Z,22.1
2023-03-24T11:56:14.831Z,22.1
2023-03-24T11:57:14.911Z,22.1
2023-03-24T11:58:14.876Z,22.2
2023-03-24T11:59:14.905Z,22.2
2023-03-24T12:00:14.844Z,22.2
2023-03-24T12:01:14.904Z,22.2
2023-03-24T12:02:14.842Z,22.2
2023-03-24T12:03:14.942Z,22.2
2023-03-24T12:04:14.841Z,22.2
2023-03-24T12:05:14.880Z,22.2
2023-03-24T12:06:14.950Z,22.2
2023-03-24T12:07:14.881Z,22.2
2023-03-24T12:08:14.898Z,22.2
2023-03-24T12:09:14.890Z,22.2
2023-03-24T12:10:14.844Z,22.2
2023-03-24T12:11:16.753Z,22.2
2023-03-24T12:12:14.886Z,22.2
2023-03-24T12:13:29.626Z,22.2
2023-03-24T12:14:14.877Z,22.2
2023-03-24T12:15:27.154Z,22.2
2023-03-24T12:16:14.918Z,22.2
2023-03-24T12:17:14.861Z,22.2
2023-03-24T12:18:14.936Z,22.2
2023-03-24T12:19:14.910Z,22.2
2023-03-24T12:20:14.842Z,22.2
2023-03-24T12:21:14.849Z,22.2
2023-03-24T12:22:14.911Z,22.6
2023-03-24T12:23:14.894Z,22.6
2023-03-24T12:24:14.897Z,22.6
2023-03-24T12:25:14.905Z,22.6
2023-03-24T12:26:14.912Z,22.6
2023-03-24T12:27:14.862Z,22.6
2023-03-24T12:28:14.877Z,22.6
2023-03-24T12:29:14.894Z,22.6
2023-03-24T12:30:14.923Z,22.6
2023-03-24T12:31:14.923Z,22.6
2023-03-24T12:32:14.902Z,22.6
2023-03-24T12:33:14.900Z,22.6
2023-03-24T12:34:14.895Z,22.6
2023-03-24T12:35:14.939Z,22.6
2023-03-24T12:36:14.918Z,22.6
2023-03-24T12:37:14.901Z,22.6
2023-03-24T12:38:14.888Z,22.6
2023-03-24T12:39:14.999Z,22.6
2023-03-24T12:40:14.930Z,22.7
2023-03-24T12:41:14.897Z,22.7
2023-03-24T12:42:14.888Z,22.7
2023-03-24T12:43:14.878Z,22.7
2023-03-24T12:44:14.907Z,22.7
2023-03-24T12:45:14.892Z,22.7
2023-03-24T12:46:14.952Z,22.7
2023-03-24T12:47:14.906Z,22.7
2023-03-24T12:48:14.903Z,22.7
2023-03-24T12:49:14.900Z,22.7
2023-03-24T12:50:14.975Z,22.7
2023-03-24T12:51:14.892Z,22.7
2023-03-24T12:52:14.905Z,22.7
2023-03-24T12:53:14.907Z,22.7
2023-03-24T12:54:14.903Z,22.7
2023-03-24T12:55:14.958Z,22.7
2023-03-24T12:56:14.908Z,22.7
2023-03-24T12:57:14.901Z,22.7
2023-03-24T12:58:14.903Z,22.7
2023-03-24T12:59:14.904Z,22.7
2023-03-24T13:00:14.901Z,22.7
2023-03-24T13:01:15.016Z,22.8
2023-03-24T13:02:14.980Z,22.8
2023-03-24T13:03:14.933Z,22.8
2023-03-24T13:04:14.908Z,22.8
2023-03-24T13:05:16.092Z,22.8
2023-03-24T13:06:17.470Z,22.8
2023-03-24T13:07:14.902Z,22.8
2023-03-24T13:08:14.891Z,22.8
2023-03-24T13:09:14.893Z,22.8
2023-03-24T13:10:14.907Z,22.8
2023-03-24T13:11:26.580Z,22.8
2023-03-24T13:12:14.900Z,22.9
2023-03-24T13:13:14.879Z,22.9
2023-03-24T13:14:14.905Z,22.9
2023-03-24T13:15:14.899Z,22.9
2023-03-24T13:16:14.943Z,22.9
2023-03-24T13:17:14.936Z,22.9
2023-03-24T13:18:14.967Z,22.9
2023-03-24T13:19:14.916Z,22.9
2023-03-24T13:20:14.959Z,23.1
2023-03-24T13:21:14.902Z,23.1
2023-03-24T13:22:14.935Z,23.1
2023-03-24T13:23:14.910Z,23.1
2023-03-24T13:24:15.444Z,23.1
2023-03-24T13:25:14.895Z,23.1
2023-03-24T13:26:14.955Z,23.1
2023-03-24T13:27:14.940Z,23.1
2023-03-24T13:28:14.950Z,23.1
2023-03-24T13:29:14.901Z,23.1
2023-03-24T13:30:14.940Z,23.1
2023-03-24T13:31:14.912Z,23.1
2023-03-24T13:32:14.917Z,23.1
2023-03-24T13:33:14.948Z,23.1
2023-03-24T13:34:14.948Z,23.1